Warnow Sun — 9HA4159 — position and weather

sailwx.info

Track history (hours):
 
Tides and Currents Weather Stations Pressure Air Temp Water Temp Dewpoint Dewpoint Depression Visibility Wind Speed Wind Dir Waves Ship Positions

Warnow Sun

Last reported at 2018-Jun-25 01:29 UTC. Time now 2018-Jun-25 17:41 UTC.
Position N 29°00' W 094°10'.

Length 180 m; draft 7.8 m.

Type: Ship. MMSI: 249225000.

Date/timePositionNaut miles runAvg speedWind from/ knotsBaromVisibWave heightAir tempDewpointWater temp
2018-Jun-25 01:29N 29°00' W 094°10'913.7
2018-Jun-25 00:48N 29°06' W 094°18'413.6
2018-Jun-25 00:29N 29°08' W 094°23'612.8
2018-Jun-24 23:59N 29°11' W 094°29'712.3
2018-Jun-24 23:23N 29°17' W 094°35'811.8
2018-Jun-24 22:41N 29°21' W 094°43'213.8
2018-Jun-24 22:30N 29°21' W 094°46'612.2
2018-Jun-24 22:01N 29°25' W 094°50'612.0
2018-Jun-24 21:30N 29°31' W 094°53'611.5
2018-Jun-24 21:00N 29°36' W 094°57'510.6
2018-Jun-24 20:30N 29°41' W 094°59'4 7.6
2018-Jun-24 20:00N 29°44' W 095°01'3 6.7
2018-Jun-24 19:30N 29°46' W 095°05'4 5.4
2018-Jun-24 18:46N 29°44' W 095°09'2 5.5
2018-Jun-24 18:22N 29°45' W 095°11'2 5.5
2018-Jun-24 18:00N 29°43' W 095°13'1 0.0
2018-Jun-23 04:30N 29°43' W 095°15'0 0.0
2018-Jun-22 06:09N 29°43' W 095°15'0 0.0
2018-Jun-22 05:57N 29°43' W 095°15'  
2018-Jun-19 02:46N 29°44' W 095°03'2 7.7
2018-Jun-19 02:29N 29°43' W 095°01'5 9.5
2018-Jun-19 02:00N 29°39' W 094°58'612.1
2018-Jun-19 01:29N 29°34' W 094°55'612.3
2018-Jun-19 00:59N 29°28' W 094°51'611.9
2018-Jun-19 00:30N 29°23' W 094°49'5 9.9
2018-Jun-19 00:00N 29°21' W 094°44'611.6
2018-Jun-18 23:30N 29°19' W 094°38'4 7.6
2018-Jun-18 22:56N 29°20' W 094°33'0 0.0
2018-Jun-18 17:35N 29°20' W 094°33'0 0.0
2018-Jun-18 17:08N 29°20' W 094°33'0 0.0
2018-Jun-18 16:56N 29°20' W 094°33'0 0.0
2018-Jun-17 19:55N 29°20' W 094°33'3 7.5
2018-Jun-17 19:28N 29°17' W 094°32'  
Track history (hours):
 
Tides and Currents Weather Stations Pressure Air Temp Water Temp Dewpoint Dewpoint Depression Visibility Wind Speed Wind Dir Waves Ship Positions

Warnow Sun

Last reported at 2018-Jun-25 01:29 UTC. Time now 2018-Jun-25 17:41 UTC.
Position N 29°00' W 094°10'.

Length 180 m; draft 7.8 m.

Type: Ship. MMSI: 249225000.

Date/timePositionNaut miles runAvg speedWind from/ knotsBaromVisibWave heightAir tempDewpointWater temp
2018-Jun-25 01:29N 29°00' W 094°10'913.7
2018-Jun-25 00:48N 29°06' W 094°18'413.6
2018-Jun-25 00:29N 29°08' W 094°23'612.8
2018-Jun-24 23:59N 29°11' W 094°29'712.3
2018-Jun-24 23:23N 29°17' W 094°35'811.8
2018-Jun-24 22:41N 29°21' W 094°43'213.8
2018-Jun-24 22:30N 29°21' W 094°46'612.2
2018-Jun-24 22:01N 29°25' W 094°50'612.0
2018-Jun-24 21:30N 29°31' W 094°53'611.5
2018-Jun-24 21:00N 29°36' W 094°57'510.6
2018-Jun-24 20:30N 29°41' W 094°59'4 7.6
2018-Jun-24 20:00N 29°44' W 095°01'3 6.7
2018-Jun-24 19:30N 29°46' W 095°05'4 5.4
2018-Jun-24 18:46N 29°44' W 095°09'2 5.5
2018-Jun-24 18:22N 29°45' W 095°11'2 5.5
2018-Jun-24 18:00N 29°43' W 095°13'1 0.0
2018-Jun-23 04:30N 29°43' W 095°15'0 0.0
2018-Jun-22 06:09N 29°43' W 095°15'0 0.0
2018-Jun-22 05:57N 29°43' W 095°15'  
2018-Jun-19 02:46N 29°44' W 095°03'2 7.7
2018-Jun-19 02:29N 29°43' W 095°01'5 9.5
2018-Jun-19 02:00N 29°39' W 094°58'612.1
2018-Jun-19 01:29N 29°34' W 094°55'612.3
2018-Jun-19 00:59N 29°28' W 094°51'611.9
2018-Jun-19 00:30N 29°23' W 094°49'5 9.9
2018-Jun-19 00:00N 29°21' W 094°44'611.6
2018-Jun-18 23:30N 29°19' W 094°38'4 7.6
2018-Jun-18 22:56N 29°20' W 094°33'0 0.0
2018-Jun-18 17:35N 29°20' W 094°33'0 0.0
2018-Jun-18 17:08N 29°20' W 094°33'0 0.0
2018-Jun-18 16:56N 29°20' W 094°33'0 0.0
2018-Jun-17 19:55N 29°20' W 094°33'3 7.5
2018-Jun-17 19:28N 29°17' W 094°32'  

Dump ship's entire track history